Time;durP1;ratioP1;P1;durP2;ratioP2;P2;SDS_P1;SDS_P2;PMS_P1;PMS_P2;Temp;Humidity;BMP_temperature;BMP_pressure;BME280_temperature;BME280_humidity;BME280_pressure;Samples;Min_cycle;Max_cycle;Signal;HPM_P1;HPM_P2
2022/04/04 00:01:33;;;;;;;8.60;3.30;;;;;;;;;;5108439;28;20095;-78
2022/04/04 00:04:00;;;;;;;6.93;3.00;;;;;;;;;;5108827;28;20056;-78
2022/04/04 00:06:29;;;;;;;7.45;3.53;;;;;;;;;;5092534;28;20127;-79
2022/04/04 00:08:56;;;;;;;8.55;3.53;;;;;;;;;;5110431;28;20063;-79
2022/04/04 00:11:22;;;;;;;6.72;3.72;;;;;;;;;;5090362;28;20132;-79
2022/04/04 00:13:49;;;;;;;9.10;3.63;;;;;;;;;;5088541;28;20942;-78
2022/04/04 00:16:15;;;;;;;6.88;3.72;;;;;;;;;;5107969;27;20070;-78
2022/04/04 00:18:41;;;;;;;8.55;4.03;;;;;;;;;;5110621;28;20059;-79
2022/04/04 00:21:08;;;;;;;9.25;4.47;;;;;;;;;;5109703;28;20052;-79
2022/04/04 00:23:34;;;;;;;10.50;4.38;;;;;;;;;;5102488;28;20080;-79
2022/04/04 00:26:03;;;;;;;10.20;4.55;;;;;;;;;;5109539;28;20055;-78
2022/04/04 00:28:30;;;;;;;10.18;4.13;;;;;;;;;;5088425;28;20102;-79
2022/04/04 00:30:56;;;;;;;9.27;4.55;;;;;;;;;;5109286;28;20121;-79
2022/04/04 00:33:22;;;;;;;10.98;5.22;;;;;;;;;;5092388;28;20059;-78
2022/04/04 00:35:49;;;;;;;11.52;5.28;;;;;;;;;;5110197;28;20868;-79
2022/04/04 00:38:16;;;;;;;11.05;4.65;;;;;;;;;;5109262;28;20082;-78
2022/04/04 00:40:43;;;;;;;11.15;4.75;;;;;;;;;;5109604;28;20060;-79
2022/04/04 00:43:09;;;;;;;11.40;5.20;;;;;;;;;;5110721;28;20067;-78
2022/04/04 00:45:36;;;;;;;12.65;5.38;;;;;;;;;;5093363;28;20090;-78
2022/04/04 00:48:02;;;;;;;18.75;5.32;;;;;;;;;;5093143;28;20138;-79
2022/04/04 00:50:29;;;;;;;12.77;5.47;;;;;;;;;;5085133;28;20595;-78
2022/04/04 00:52:55;;;;;;;8.95;4.90;;;;;;;;;;5109922;28;20056;-78
2022/04/04 00:55:22;;;;;;;13.05;5.38;;;;;;;;;;5094031;28;20105;-80
2022/04/04 00:57:48;;;;;;;12.93;5.50;;;;;;;;;;5103955;28;20063;-79
2022/04/04 01:00:15;;;;;;;12.23;5.43;;;;;;;;;;5096079;27;20060;-79
2022/04/04 01:02:42;;;;;;;14.15;4.88;;;;;;;;;;5102225;28;20055;-79
2022/04/04 01:05:09;;;;;;;10.55;5.22;;;;;;;;;;5093516;28;20538;-78
2022/04/04 01:07:37;;;;;;;13.98;5.72;;;;;;;;;;5112161;28;20984;-78
2022/04/04 01:10:03;;;;;;;15.85;5.88;;;;;;;;;;5109652;27;20109;-80
2022/04/04 01:12:29;;;;;;;12.48;5.65;;;;;;;;;;5110876;28;20101;-78
2022/04/04 01:14:56;;;;;;;11.15;5.45;;;;;;;;;;5093874;28;20080;-79
2022/04/04 01:17:24;;;;;;;13.45;5.97;;;;;;;;;;5109126;28;20040;-80
2022/04/04 01:19:51;;;;;;;11.88;6.00;;;;;;;;;;5106356;28;20056;-79
2022/04/04 01:22:17;;;;;;;11.25;5.63;;;;;;;;;;5107339;27;20056;-79
2022/04/04 01:24:44;;;;;;;10.70;6.07;;;;;;;;;;5107148;28;20044;-79
2022/04/04 01:27:11;;;;;;;14.05;6.13;;;;;;;;;;5114163;28;20052;-79
2022/04/04 01:29:39;;;;;;;12.65;5.90;;;;;;;;;;5114301;28;20052;-78
2022/04/04 01:32:06;;;;;;;14.55;6.38;;;;;;;;;;5107116;28;20090;-79
2022/04/04 01:34:32;;;;;;;16.02;6.22;;;;;;;;;;5105691;28;20083;-79
2022/04/04 01:36:59;;;;;;;13.00;6.97;;;;;;;;;;5107214;28;20062;-79
2022/04/04 01:39:25;;;;;;;15.95;6.22;;;;;;;;;;5096785;28;20059;-78
2022/04/04 01:41:51;;;;;;;13.32;6.78;;;;;;;;;;5101371;27;20109;-79
2022/04/04 01:44:18;;;;;;;10.60;5.03;;;;;;;;;;5089813;28;20086;-79
2022/04/04 01:46:44;;;;;;;13.50;6.18;;;;;;;;;;5110627;28;20113;-78
2022/04/04 01:49:11;;;;;;;12.68;6.22;;;;;;;;;;5107249;28;20044;-79
2022/04/04 01:51:38;;;;;;;11.75;6.45;;;;;;;;;;5112072;28;20086;-78
2022/04/04 01:54:04;;;;;;;14.95;7.45;;;;;;;;;;5113978;28;20325;-78
2022/04/04 01:56:31;;;;;;;14.85;6.50;;;;;;;;;;5110698;28;20117;-79
2022/04/04 01:58:59;;;;;;;13.52;6.35;;;;;;;;;;5094856;28;20082;-79
2022/04/04 02:01:26;;;;;;;14.60;6.85;;;;;;;;;;5093384;28;20052;-79
2022/04/04 02:03:53;;;;;;;13.30;7.07;;;;;;;;;;5088130;28;20049;-79
2022/04/04 02:06:20;;;;;;;13.65;6.75;;;;;;;;;;5111866;28;20083;-78
2022/04/04 02:08:46;;;;;;;13.35;6.93;;;;;;;;;;5098916;28;20103;-79
2022/04/04 02:11:13;;;;;;;11.95;6.57;;;;;;;;;;5085956;28;20956;-79
2022/04/04 02:13:40;;;;;;;14.10;7.43;;;;;;;;;;5092447;28;20314;-79
2022/04/04 02:16:07;;;;;;;13.60;7.00;;;;;;;;;;5090130;28;20048;-78
2022/04/04 02:18:34;;;;;;;14.75;6.70;;;;;;;;;;5114108;28;20056;-79
2022/04/04 02:21:01;;;;;;;12.60;6.88;;;;;;;;;;5095165;28;20075;-79
2022/04/04 02:23:28;;;;;;;13.13;7.03;;;;;;;;;;5113829;28;20084;-79
2022/04/04 02:25:58;;;;;;;15.15;7.20;;;;;;;;;;5113886;28;21070;-79
2022/04/04 02:28:28;;;;;;;14.65;7.72;;;;;;;;;;5110026;28;20858;-78
2022/04/04 02:30:55;;;;;;;11.88;6.97;;;;;;;;;;5092538;28;20057;-78
2022/04/04 02:33:23;;;;;;;15.18;8.18;;;;;;;;;;5095940;28;20056;-79
2022/04/04 02:35:50;;;;;;;13.52;7.40;;;;;;;;;;5089493;28;20067;-79
2022/04/04 02:38:18;;;;;;;12.80;7.32;;;;;;;;;;5109471;28;20098;-79
2022/04/04 02:40:45;;;;;;;13.38;7.47;;;;;;;;;;5084382;28;20052;-78
2022/04/04 02:43:12;;;;;;;17.20;7.82;;;;;;;;;;5087603;28;20059;-79
2022/04/04 02:45:39;;;;;;;13.05;7.50;;;;;;;;;;5095240;28;20087;-79
2022/04/04 02:48:05;;;;;;;11.75;7.32;;;;;;;;;;5104479;27;20155;-79
2022/04/04 02:50:32;;;;;;;14.07;8.27;;;;;;;;;;5095548;28;20052;-79
2022/04/04 02:52:59;;;;;;;15.00;7.97;;;;;;;;;;5111976;27;20071;-79
2022/04/04 02:58:10;;;;;;;14.63;7.93;;;;;;;;;;5113736;28;20047;-79
2022/04/04 03:00:36;;;;;;;13.57;7.45;;;;;;;;;;5113706;28;20052;-80
2022/04/04 03:03:03;;;;;;;12.05;7.10;;;;;;;;;;5111238;28;20662;-79
2022/04/04 03:05:29;;;;;;;13.23;7.40;;;;;;;;;;5092493;28;20099;-79
2022/04/04 03:07:56;;;;;;;15.35;7.05;;;;;;;;;;5114040;28;20044;-79
2022/04/04 03:10:22;;;;;;;13.10;7.28;;;;;;;;;;5094209;28;20074;-79
2022/04/04 03:12:53;;;;;;;;;;;;;;;;;;5091293;28;20059;-80
2022/04/04 03:15:21;;;;;;;11.07;6.15;;;;;;;;;;5109339;28;47322;-79
2022/04/04 03:17:49;;;;;;;14.20;7.15;;;;;;;;;;5106716;28;20045;-79
2022/04/04 03:20:16;;;;;;;11.90;6.53;;;;;;;;;;5092033;28;20083;-79
2022/04/04 03:22:44;;;;;;;15.73;6.95;;;;;;;;;;5109186;28;20105;-80
2022/04/04 03:25:11;;;;;;;12.15;6.72;;;;;;;;;;5112865;28;20048;-80
2022/04/04 03:27:38;;;;;;;11.00;6.63;;;;;;;;;;5104637;28;20098;-79
2022/04/04 03:30:09;;;;;;;14.98;6.15;;;;;;;;;;5112757;28;20047;-79
2022/04/04 03:32:35;;;;;;;11.30;5.88;;;;;;;;;;5095068;28;20107;-79
2022/04/04 03:35:02;;;;;;;11.40;6.70;;;;;;;;;;5109040;28;20143;-79
2022/04/04 03:37:28;;;;;;;11.35;6.00;;;;;;;;;;5112156;28;20096;-79
2022/04/04 03:39:54;;;;;;;10.55;5.97;;;;;;;;;;5111549;28;20123;-79
2022/04/04 03:42:21;;;;;;;11.15;5.72;;;;;;;;;;5102559;28;20087;-79
2022/04/04 03:44:47;;;;;;;16.67;7.25;;;;;;;;;;5105284;27;20113;-79
2022/04/04 03:47:14;;;;;;;11.80;6.40;;;;;;;;;;5107415;28;20052;-79
2022/04/04 03:49:40;;;;;;;12.68;6.43;;;;;;;;;;5094259;28;20053;-79
2022/04/04 03:52:07;;;;;;;11.68;5.97;;;;;;;;;;5105829;28;20056;-79
2022/04/04 03:54:34;;;;;;;10.75;6.05;;;;;;;;;;5093421;28;20075;-79
2022/04/04 03:57:01;;;;;;;11.80;6.25;;;;;;;;;;5111620;28;20087;-79
2022/04/04 03:59:27;;;;;;;11.05;6.30;;;;;;;;;;5094417;28;20056;-80
2022/04/04 04:01:54;;;;;;;17.98;6.65;;;;;;;;;;5113045;28;20082;-79
2022/04/04 04:04:20;;;;;;;9.43;5.80;;;;;;;;;;5111598;28;20048;-80
2022/04/04 04:06:46;;;;;;;11.73;5.80;;;;;;;;;;5108658;28;20092;-79
2022/04/04 04:09:13;;;;;;;11.82;6.00;;;;;;;;;;5112837;28;20052;-79
2022/04/04 04:11:39;;;;;;;12.20;6.10;;;;;;;;;;5093137;28;20121;-79
2022/04/04 04:14:06;;;;;;;11.10;6.03;;;;;;;;;;5107475;28;20052;-79
2022/04/04 04:16:32;;;;;;;9.38;5.25;;;;;;;;;;5097548;28;20048;-79
2022/04/04 04:18:59;;;;;;;12.20;6.20;;;;;;;;;;5112340;28;20048;-79
2022/04/04 04:21:25;;;;;;;12.00;6.25;;;;;;;;;;5106871;28;20139;-79
2022/04/04 04:23:52;;;;;;;10.27;5.95;;;;;;;;;;5093955;28;20090;-79
2022/04/04 04:26:18;;;;;;;11.52;6.38;;;;;;;;;;5093206;28;20102;-79
2022/04/04 04:28:45;;;;;;;14.48;6.45;;;;;;;;;;5093877;28;20423;-79
2022/04/04 04:31:16;;;;;;;13.45;6.63;;;;;;;;;;5093604;28;20105;-79
2022/04/04 04:33:43;;;;;;;13.18;6.68;;;;;;;;;;5094222;28;20067;-79
2022/04/04 04:36:10;;;;;;;13.68;6.90;;;;;;;;;;5107292;28;20052;-79
2022/04/04 04:38:37;;;;;;;11.45;6.90;;;;;;;;;;5107540;28;20074;-79
2022/04/04 04:41:03;;;;;;;11.85;6.53;;;;;;;;;;5110700;28;20087;-79
2022/04/04 04:43:29;;;;;;;12.68;7.70;;;;;;;;;;5093636;28;20052;-79
2022/04/04 04:45:56;;;;;;;13.07;6.30;;;;;;;;;;5092770;28;20079;-79
2022/04/04 04:48:22;;;;;;;13.75;7.32;;;;;;;;;;5110005;28;20095;-79
2022/04/04 04:50:48;;;;;;;16.55;8.30;;;;;;;;;;5106315;28;20060;-80
2022/04/04 04:53:15;;;;;;;13.27;7.93;;;;;;;;;;5093309;28;20056;-80
2022/04/04 04:55:42;;;;;;;14.10;7.53;;;;;;;;;;5111989;28;20058;-80
2022/04/04 04:58:09;;;;;;;11.68;7.35;;;;;;;;;;5110853;28;20578;-80
2022/04/04 05:00:37;;;;;;;16.58;7.25;;;;;;;;;;5112069;28;20084;-79
2022/04/04 05:05:49;;;;;;;14.68;7.72;;;;;;;;;;5107679;28;20059;-80
2022/04/04 05:08:15;;;;;;;20.38;7.65;;;;;;;;;;5103998;28;20056;-80
2022/04/04 05:10:42;;;;;;;15.75;7.57;;;;;;;;;;5111325;28;20076;-80
2022/04/04 05:13:08;;;;;;;14.70;7.47;;;;;;;;;;5109168;27;20110;-80
2022/04/04 05:15:34;;;;;;;12.20;7.05;;;;;;;;;;5109650;28;20052;-80
2022/04/04 05:18:01;;;;;;;14.02;7.35;;;;;;;;;;5094189;28;20056;-80
2022/04/04 05:20:29;;;;;;;15.75;7.97;;;;;;;;;;5093398;28;20079;-80
2022/04/04 05:22:57;;;;;;;16.20;7.72;;;;;;;;;;5111489;28;20106;-80
2022/04/04 05:25:23;;;;;;;15.63;7.45;;;;;;;;;;5110450;28;20499;-80
2022/04/04 05:27:53;;;;;;;14.85;7.13;;;;;;;;;;5076753;28;20142;-80
2022/04/04 05:30:19;;;;;;;14.05;8.23;;;;;;;;;;5086482;28;20142;-80
2022/04/04 05:32:45;;;;;;;12.20;7.00;;;;;;;;;;5111030;27;20064;-79
2022/04/04 05:35:12;;;;;;;14.93;7.05;;;;;;;;;;5093012;28;20114;-80
2022/04/04 05:37:38;;;;;;;16.30;7.43;;;;;;;;;;5110596;28;20095;-80
2022/04/04 05:40:05;;;;;;;13.02;6.82;;;;;;;;;;5108360;28;20138;-80
2022/04/04 05:42:32;;;;;;;11.57;6.25;;;;;;;;;;5105459;28;20048;-80
2022/04/04 05:44:58;;;;;;;11.95;6.95;;;;;;;;;;5094604;28;20088;-80
2022/04/04 05:47:26;;;;;;;15.65;7.15;;;;;;;;;;5110698;28;20994;-80
2022/04/04 05:49:53;;;;;;;14.82;6.85;;;;;;;;;;5094255;28;20068;-80
2022/04/04 05:52:20;;;;;;;12.38;6.53;;;;;;;;;;5091990;28;20068;-80
2022/04/04 05:54:59;;;;;;;11.48;6.45;;;;;;;;;;5092786;28;20098;-80
2022/04/04 05:57:26;;;;;;;15.02;7.40;;;;;;;;;;5094472;28;20051;-80
2022/04/04 05:59:54;;;;;;;12.90;7.13;;;;;;;;;;5092708;28;20125;-80
2022/04/04 06:02:21;;;;;;;13.98;6.72;;;;;;;;;;5111192;28;20062;-79
2022/04/04 06:04:47;;;;;;;10.43;6.50;;;;;;;;;;5092997;28;20040;-80
2022/04/04 06:07:14;;;;;;;11.82;6.70;;;;;;;;;;5092604;28;20552;-80
2022/04/04 06:09:40;;;;;;;13.05;7.03;;;;;;;;;;5111648;28;20040;-80
2022/04/04 06:12:08;;;;;;;14.15;7.63;;;;;;;;;;5114547;28;20086;-80
2022/04/04 06:14:37;;;;;;;11.77;7.43;;;;;;;;;;5096620;28;20056;-80
2022/04/04 06:17:05;;;;;;;14.27;7.70;;;;;;;;;;5087624;28;20052;-80
2022/04/04 06:19:32;;;;;;;12.00;6.80;;;;;;;;;;5114408;28;20062;-80
2022/04/04 06:21:58;;;;;;;12.27;6.70;;;;;;;;;;5113817;28;20083;-80
2022/04/04 06:24:24;;;;;;;12.18;6.78;;;;;;;;;;5095892;28;20574;-80
2022/04/04 06:26:51;;;;;;;15.02;7.85;;;;;;;;;;5090021;28;20123;-80
2022/04/04 06:29:17;;;;;;;17.10;7.97;;;;;;;;;;5092788;28;20064;-80
2022/04/04 06:31:46;;;;;;;14.38;7.18;;;;;;;;;;5105930;28;20045;-80
2022/04/04 06:34:12;;;;;;;14.20;6.88;;;;;;;;;;5096082;28;20060;-80
2022/04/04 06:36:40;;;;;;;13.10;7.05;;;;;;;;;;5097399;28;20048;-80
2022/04/04 06:39:06;;;;;;;13.00;7.55;;;;;;;;;;5094334;28;20052;-81
2022/04/04 06:41:33;;;;;;;13.32;7.75;;;;;;;;;;5114053;28;20075;-80
2022/04/04 06:43:59;;;;;;;11.63;7.28;;;;;;;;;;5114724;28;20097;-79
2022/04/04 06:46:26;;;;;;;14.15;6.85;;;;;;;;;;5088446;28;20969;-80
2022/04/04 06:48:52;;;;;;;14.85;7.43;;;;;;;;;;5096213;28;20052;-80
2022/04/04 06:51:19;;;;;;;14.80;7.13;;;;;;;;;;5096900;28;20044;-80
2022/04/04 06:53:46;;;;;;;13.23;7.25;;;;;;;;;;5114525;28;20075;-80
2022/04/04 06:56:12;;;;;;;10.65;6.85;;;;;;;;;;5095026;28;20086;-80
2022/04/04 06:58:39;;;;;;;14.77;7.28;;;;;;;;;;5096834;28;20113;-80
2022/04/04 07:01:05;;;;;;;12.77;7.40;;;;;;;;;;5098829;28;21260;-80
2022/04/04 07:03:31;;;;;;;13.48;6.97;;;;;;;;;;5112353;28;20125;-80
2022/04/04 07:05:58;;;;;;;14.20;7.28;;;;;;;;;;5115007;28;20083;-80
2022/04/04 07:08:25;;;;;;;15.43;7.68;;;;;;;;;;5095675;28;20056;-80
2022/04/04 07:10:54;;;;;;;16.40;7.68;;;;;;;;;;5113181;28;20603;-80
2022/04/04 07:13:20;;;;;;;12.95;7.35;;;;;;;;;;5091551;28;20082;-80
2022/04/04 07:15:47;;;;;;;14.07;6.90;;;;;;;;;;5095676;28;20054;-80
2022/04/04 07:18:14;;;;;;;13.13;6.95;;;;;;;;;;5108844;28;20546;-80
2022/04/04 07:20:40;;;;;;;12.43;6.40;;;;;;;;;;5094203;28;20115;-80
2022/04/04 07:23:06;;;;;;;13.07;7.15;;;;;;;;;;5096581;28;20037;-80
2022/04/04 07:25:33;;;;;;;11.25;6.15;;;;;;;;;;5095727;28;20113;-80
2022/04/04 07:27:59;;;;;;;13.68;6.60;;;;;;;;;;5096464;28;20048;-80
2022/04/04 07:30:26;;;;;;;10.95;6.40;;;;;;;;;;5113288;28;20114;-80
2022/04/04 07:32:53;;;;;;;11.57;5.63;;;;;;;;;;5105688;28;20055;-81
2022/04/04 07:35:20;;;;;;;13.57;6.78;;;;;;;;;;5096004;28;20087;-80
2022/04/04 07:37:47;;;;;;;12.05;6.30;;;;;;;;;;5093784;28;20058;-80
2022/04/04 07:40:15;;;;;;;14.40;7.72;;;;;;;;;;5095714;28;20056;-80
2022/04/04 07:42:42;;;;;;;14.13;7.13;;;;;;;;;;5112104;28;20059;-80
2022/04/04 07:45:09;;;;;;;12.73;7.07;;;;;;;;;;5095402;28;20137;-80
2022/04/04 07:47:36;;;;;;;17.33;8.13;;;;;;;;;;5109589;28;20651;-81
2022/04/04 07:50:03;;;;;;;10.60;6.60;;;;;;;;;;5091782;28;20040;-80
2022/04/04 07:52:29;;;;;;;14.07;7.32;;;;;;;;;;5113188;27;20060;-80
2022/04/04 07:54:56;;;;;;;14.70;7.13;;;;;;;;;;5091269;28;20121;-80
2022/04/04 07:57:23;;;;;;;13.20;7.40;;;;;;;;;;5090988;28;20087;-80
2022/04/04 07:59:52;;;;;;;14.63;8.02;;;;;;;;;;5094588;28;20487;-80
2022/04/04 08:02:19;;;;;;;14.68;6.78;;;;;;;;;;5113206;28;20048;-79
2022/04/04 08:04:46;;;;;;;15.77;7.82;;;;;;;;;;5111305;28;20052;-80
2022/04/04 08:07:13;;;;;;;18.48;7.30;;;;;;;;;;5109268;27;20534;-79
2022/04/04 08:09:39;;;;;;;14.30;7.97;;;;;;;;;;5090961;28;20080;-79
2022/04/04 08:12:05;;;;;;;14.75;7.72;;;;;;;;;;5107731;28;20130;-80
2022/04/04 08:14:36;;;;;;;15.88;7.47;;;;;;;;;;5095854;28;20062;-80
2022/04/04 08:17:03;;;;;;;13.07;7.72;;;;;;;;;;5096646;28;20070;-81
2022/04/04 08:19:30;;;;;;;12.60;7.40;;;;;;;;;;5112670;28;20071;-80
2022/04/04 08:21:56;;;;;;;16.67;8.07;;;;;;;;;;5093323;28;20105;-81
2022/04/04 08:24:25;;;;;;;13.20;8.23;;;;;;;;;;5091635;28;20071;-81
2022/04/04 08:26:51;;;;;;;13.32;7.38;;;;;;;;;;5090570;28;20054;-80
2022/04/04 08:29:18;;;;;;;13.45;7.78;;;;;;;;;;5113185;28;20048;-81
2022/04/04 08:31:44;;;;;;;17.10;9.27;;;;;;;;;;5109779;28;20076;-79
2022/04/04 08:34:11;;;;;;;17.98;8.85;;;;;;;;;;5101758;27;20106;-80
2022/04/04 08:36:38;;;;;;;14.80;8.02;;;;;;;;;;5111508;28;20047;-81
2022/04/04 08:39:04;;;;;;;19.33;8.93;;;;;;;;;;5091257;28;20519;-79
2022/04/04 08:41:34;;;;;;;16.33;8.80;;;;;;;;;;5093977;28;20534;-81
2022/04/04 08:44:01;;;;;;;16.15;9.20;;;;;;;;;;5091911;28;20056;-79
2022/04/04 08:46:29;;;;;;;15.63;9.50;;;;;;;;;;5108578;28;20499;-80
2022/04/04 08:48:58;;;;;;;16.98;9.98;;;;;;;;;;5093154;28;20049;-77
2022/04/04 08:51:25;;;;;;;16.48;10.18;;;;;;;;;;5095003;28;20142;-79
2022/04/04 08:53:52;;;;;;;47.63;23.98;;;;;;;;;;5091256;28;20098;-77
2022/04/04 08:56:20;;;;;;;20.50;11.48;;;;;;;;;;5085959;28;20075;-79
2022/04/04 08:58:47;;;;;;;21.60;11.50;;;;;;;;;;5088130;28;20053;-78
2022/04/04 09:01:13;;;;;;;18.38;11.13;;;;;;;;;;5113011;28;20519;-79
2022/04/04 09:03:40;;;;;;;19.60;11.77;;;;;;;;;;5093590;28;20286;-76
2022/04/04 09:06:06;;;;;;;19.60;11.77;;;;;;;;;;5114728;28;20036;-78
2022/04/04 09:08:44;;;;;;;27.10;13.90;;;;;;;;;;5100844;28;20048;-78
2022/04/04 09:11:11;;;;;;;24.48;13.07;;;;;;;;;;5118653;28;20052;-78
2022/04/04 09:13:37;;;;;;;16.88;10.65;;;;;;;;;;5100856;28;20106;-79
2022/04/04 09:16:05;;;;;;;20.40;11.32;;;;;;;;;;5093542;28;20107;-78
2022/04/04 09:18:37;;;;;;;20.98;11.70;;;;;;;;;;5104498;28;20138;-78
2022/04/04 09:21:04;;;;;;;16.17;10.00;;;;;;;;;;5088403;28;20056;-77
2022/04/04 09:23:35;;;;;;;17.85;9.60;;;;;;;;;;5087331;28;20040;-79
2022/04/04 09:26:02;;;;;;;13.32;8.52;;;;;;;;;;5086199;28;20135;-77
2022/04/04 09:28:28;;;;;;;18.92;10.48;;;;;;;;;;5103563;27;20125;-77
2022/04/04 09:31:09;;;;;;;14.25;9.27;;;;;;;;;;5086346;28;20107;-78
2022/04/04 09:33:40;;;;;;;13.75;8.77;;;;;;;;;;5084097;28;20053;-78
2022/04/04 09:36:07;;;;;;;16.90;9.38;;;;;;;;;;5114464;28;20048;-79
2022/04/04 09:38:34;;;;;;;23.05;11.02;;;;;;;;;;5107292;28;20052;-79
2022/04/04 09:41:17;;;;;;;15.70;7.63;;;;;;;;;;5095329;28;20510;-79
2022/04/04 09:43:50;;;;;;;15.88;7.93;;;;;;;;;;5106597;27;20052;-84
2022/04/04 09:46:16;;;;;;;15.32;8.60;;;;;;;;;;5095309;28;20093;-78
2022/04/04 09:49:02;;;;;;;14.45;8.73;;;;;;;;;;5112684;27;20032;-78
2022/04/04 09:51:38;;;;;;;16.48;8.35;;;;;;;;;;5111368;27;20122;-78
2022/04/04 09:54:06;;;;;;;13.77;6.97;;;;;;;;;;5093379;27;20558;-78
2022/04/04 09:56:35;;;;;;;11.40;6.63;;;;;;;;;;5090651;28;20101;-78
2022/04/04 09:59:02;;;;;;;12.60;7.57;;;;;;;;;;5104753;27;20048;-78
2022/04/04 10:01:30;;;;;;;15.15;8.05;;;;;;;;;;5106718;28;21494;-78
2022/04/04 10:03:57;;;;;;;15.27;7.45;;;;;;;;;;5088569;28;20040;-78
2022/04/04 10:06:26;;;;;;;17.02;8.82;;;;;;;;;;5108841;27;20099;-77
2022/04/04 10:08:55;;;;;;;15.25;8.27;;;;;;;;;;5093940;28;20052;-78
2022/04/04 10:11:22;;;;;;;12.35;7.47;;;;;;;;;;5095848;28;20048;-78
2022/04/04 10:13:49;;;;;;;13.75;7.32;;;;;;;;;;5095290;28;20060;-78
2022/04/04 10:16:16;;;;;;;12.48;7.50;;;;;;;;;;5095343;28;20583;-78
2022/04/04 10:18:43;;;;;;;12.30;6.88;;;;;;;;;;5112222;28;20503;-78
2022/04/04 10:21:12;;;;;;;11.35;7.20;;;;;;;;;;5085941;28;20080;-78
2022/04/04 10:23:40;;;;;;;12.48;6.78;;;;;;;;;;5095300;28;20507;-79
2022/04/04 10:26:07;;;;;;;10.80;5.40;;;;;;;;;;5095313;28;20778;-77
2022/04/04 10:28:35;;;;;;;18.30;9.35;;;;;;;;;;5109172;28;20056;-78
2022/04/04 10:31:15;;;;;;;14.35;9.05;;;;;;;;;;5096438;28;20802;-78
2022/04/04 10:33:42;;;;;;;11.95;7.22;;;;;;;;;;5112724;28;20147;-78
2022/04/04 10:36:09;;;;;;;21.80;9.80;;;;;;;;;;5079554;28;20580;-78
2022/04/04 10:38:36;;;;;;;16.63;9.30;;;;;;;;;;5097173;28;20048;-79
2022/04/04 10:41:06;;;;;;;18.50;10.85;;;;;;;;;;5094411;28;20507;-78
2022/04/04 10:43:34;;;;;;;13.40;8.38;;;;;;;;;;5095607;28;20066;-78
2022/04/04 10:46:02;;;;;;;13.63;7.72;;;;;;;;;;5093172;28;20071;-79
2022/04/04 10:48:30;;;;;;;12.15;6.57;;;;;;;;;;5096754;28;20059;-79
2022/04/04 10:51:23;;;;;;;13.18;7.35;;;;;;;;;;5095509;28;20037;-78
2022/04/04 10:53:49;;;;;;;10.90;6.35;;;;;;;;;;5110423;27;20075;-78
2022/04/04 10:56:17;;;;;;;11.05;6.60;;;;;;;;;;5112313;28;20047;-79
2022/04/04 10:58:44;;;;;;;11.40;6.18;;;;;;;;;;5096861;28;20090;-79
2022/04/04 11:01:17;;;;;;;12.07;7.68;;;;;;;;;;5111048;27;20083;-78
2022/04/04 11:03:52;;;;;;;11.10;6.13;;;;;;;;;;5092022;28;20148;-78
2022/04/04 11:09:22;;;;;;;13.30;6.63;;;;;;;;;;5109428;28;20052;-78
2022/04/04 11:11:54;;;;;;;14.45;7.22;;;;;;;;;;5091973;28;20221;-78
2022/04/04 11:14:27;;;;;;;8.85;4.85;;;;;;;;;;5086698;28;20557;-79
2022/04/04 11:17:06;;;;;;;10.75;6.00;;;;;;;;;;5109110;28;20133;-78
2022/04/04 11:19:44;;;;;;;10.70;5.88;;;;;;;;;;5108692;28;20060;-78
2022/04/04 11:22:18;;;;;;;12.43;6.68;;;;;;;;;;5106842;28;20056;-78
2022/04/04 11:24:49;;;;;;;10.40;6.55;;;;;;;;;;5106967;28;20056;-78
2022/04/04 11:27:15;;;;;;;;;;;;;;;;;;5106846;28;20079;-78
2022/04/04 11:29:42;;;;;;;11.57;5.80;;;;;;;;;;5108056;27;46761;-78
2022/04/04 11:32:15;;;;;;;8.93;4.72;;;;;;;;;;5091674;28;20078;-79
2022/04/04 11:34:42;;;;;;;8.20;3.72;;;;;;;;;;5089536;28;20113;-79
2022/04/04 11:37:18;;;;;;;11.15;5.70;;;;;;;;;;5109213;28;20098;-80
2022/04/04 11:39:45;;;;;;;12.93;5.75;;;;;;;;;;5111037;28;20052;-79
2022/04/04 11:42:11;;;;;;;10.73;5.32;;;;;;;;;;5088432;28;20064;-78
2022/04/04 11:44:44;;;;;;;9.32;5.03;;;;;;;;;;5087574;28;20060;-79
2022/04/04 11:47:11;;;;;;;10.10;5.95;;;;;;;;;;5086759;28;20082;-79
2022/04/04 11:49:39;;;;;;;10.68;5.25;;;;;;;;;;5103756;28;20790;-79
2022/04/04 11:52:09;;;;;;;9.90;5.23;;;;;;;;;;5101727;27;20048;-78
2022/04/04 11:54:40;;;;;;;7.72;4.72;;;;;;;;;;5102290;28;20056;-79
2022/04/04 11:57:07;;;;;;;8.05;4.78;;;;;;;;;;5090742;28;20052;-79
2022/04/04 11:59:35;;;;;;;10.70;5.65;;;;;;;;;;5087679;28;20114;-79
2022/04/04 12:02:08;;;;;;;7.57;4.50;;;;;;;;;;5105857;28;20052;-79
2022/04/04 12:04:36;;;;;;;8.10;4.53;;;;;;;;;;5084224;28;20044;-79
2022/04/04 12:07:03;;;;;;;9.60;4.55;;;;;;;;;;5104733;27;20793;-79
2022/04/04 12:09:33;;;;;;;9.05;4.68;;;;;;;;;;5110559;28;20864;-79
2022/04/04 12:12:04;;;;;;;8.43;4.47;;;;;;;;;;5090319;28;20056;-79
2022/04/04 12:14:30;;;;;;;;;;;;;;;;;;5108204;28;20052;-78
2022/04/04 12:16:57;;;;;;;9.88;4.35;;;;;;;;;;5109806;28;48349;-78
2022/04/04 12:19:25;;;;;;;7.50;4.32;;;;;;;;;;5081869;28;20460;-79
2022/04/04 12:21:52;;;;;;;8.60;4.35;;;;;;;;;;5106293;28;20079;-79
2022/04/04 12:27:08;;;;;;;6.63;3.92;;;;;;;;;;5113906;28;20048;-80
2022/04/04 12:29:41;;;;;;;8.68;4.15;;;;;;;;;;5111248;28;20572;-79
2022/04/04 12:32:15;;;;;;;7.80;3.55;;;;;;;;;;5102711;28;20052;-79
2022/04/04 12:34:55;;;;;;;8.05;3.97;;;;;;;;;;5093567;28;20145;-80
2022/04/04 12:37:36;;;;;;;7.05;4.25;;;;;;;;;;5111770;28;20048;-80
2022/04/04 12:40:32;;;;;;;6.65;3.75;;;;;;;;;;5103986;28;20080;-79
2022/04/04 12:43:08;;;;;;;5.75;3.28;;;;;;;;;;5087659;27;20089;-79
2022/04/04 12:45:44;;;;;;;7.10;4.32;;;;;;;;;;5090178;28;20111;-79
2022/04/04 12:48:11;;;;;;;7.68;3.85;;;;;;;;;;5093773;28;20067;-80
2022/04/04 12:50:39;;;;;;;6.85;3.63;;;;;;;;;;5088771;28;20079;-78
2022/04/04 12:53:07;;;;;;;5.90;3.55;;;;;;;;;;5097623;27;20082;-79
2022/04/04 12:55:34;;;;;;;6.72;3.58;;;;;;;;;;5106039;28;20056;-79
2022/04/04 12:58:19;;;;;;;6.70;3.40;;;;;;;;;;5108363;28;20113;-78
2022/04/04 13:00:46;;;;;;;6.30;3.75;;;;;;;;;;5097120;28;20485;-79
2022/04/04 13:03:16;;;;;;;6.47;3.58;;;;;;;;;;5111702;28;20059;-78
2022/04/04 13:05:47;;;;;;;5.95;3.38;;;;;;;;;;5093836;28;20028;-80
2022/04/04 13:08:18;;;;;;;5.85;3.22;;;;;;;;;;5099260;27;20053;-80
2022/04/04 13:10:59;;;;;;;5.60;2.80;;;;;;;;;;5094651;28;20169;-80
2022/04/04 13:13:25;;;;;;;7.45;3.75;;;;;;;;;;5111904;28;20052;-79
2022/04/04 13:15:52;;;;;;;6.07;2.90;;;;;;;;;;5092059;28;20060;-79
2022/04/04 13:18:39;;;;;;;5.35;2.90;;;;;;;;;;5113076;27;20052;-79
2022/04/04 13:21:06;;;;;;;7.50;3.40;;;;;;;;;;5096733;28;20052;-79
2022/04/04 13:23:33;;;;;;;5.13;2.60;;;;;;;;;;5094119;28;20105;-79
2022/04/04 13:25:59;;;;;;;4.70;2.67;;;;;;;;;;5110666;27;20087;-79
2022/04/04 13:28:25;;;;;;;6.80;3.50;;;;;;;;;;5113955;28;20066;-79
2022/04/04 13:30:52;;;;;;;4.32;2.33;;;;;;;;;;5113900;28;20915;-79
2022/04/04 13:33:19;;;;;;;4.63;1.83;;;;;;;;;;5115306;27;20055;-79
2022/04/04 13:35:46;;;;;;;4.85;2.70;;;;;;;;;;5094428;28;20056;-79
2022/04/04 13:38:12;;;;;;;5.13;2.83;;;;;;;;;;5115753;28;20063;-79
2022/04/04 13:40:39;;;;;;;4.35;2.42;;;;;;;;;;5095596;28;20082;-80
2022/04/04 13:43:07;;;;;;;4.78;2.53;;;;;;;;;;5097389;28;20438;-79
2022/04/04 13:45:35;;;;;;;7.55;2.78;;;;;;;;;;5113454;28;20506;-79
2022/04/04 13:48:02;;;;;;;6.82;3.30;;;;;;;;;;5097496;28;20055;-80
2022/04/04 13:50:29;;;;;;;7.32;2.70;;;;;;;;;;5110040;28;20063;-79
2022/04/04 13:52:55;;;;;;;5.13;2.83;;;;;;;;;;5113976;28;20048;-80
2022/04/04 13:55:22;;;;;;;4.35;2.17;;;;;;;;;;5116137;28;20066;-79
2022/04/04 13:57:48;;;;;;;4.78;2.15;;;;;;;;;;5112700;28;20052;-79
2022/04/04 14:00:17;;;;;;;4.18;1.92;;;;;;;;;;5103923;28;20521;-80
2022/04/04 14:02:43;;;;;;;6.35;2.50;;;;;;;;;;5113520;28;20137;-79
2022/04/04 14:05:11;;;;;;;4.13;1.50;;;;;;;;;;5113668;28;20517;-80
2022/04/04 14:07:58;;;;;;;4.38;2.17;;;;;;;;;;5114237;28;20063;-79
2022/04/04 14:10:25;;;;;;;4.00;1.90;;;;;;;;;;5113356;27;20105;-79
2022/04/04 14:12:51;;;;;;;5.50;1.92;;;;;;;;;;5114880;28;20056;-79
2022/04/04 14:15:18;;;;;;;6.03;2.72;;;;;;;;;;5114694;28;20058;-79
2022/04/04 14:17:44;;;;;;;5.00;2.80;;;;;;;;;;5115943;28;20048;-79
2022/04/04 14:20:12;;;;;;;4.88;2.50;;;;;;;;;;5096556;28;20056;-79
2022/04/04 14:22:38;;;;;;;6.55;3.58;;;;;;;;;;5115420;28;20048;-79
2022/04/04 14:25:05;;;;;;;5.95;1.95;;;;;;;;;;5114216;28;20106;-79
2022/04/04 14:27:32;;;;;;;4.32;2.20;;;;;;;;;;5113674;27;20085;-79
2022/04/04 14:29:58;;;;;;;4.13;1.90;;;;;;;;;;5097805;28;20052;-80
2022/04/04 14:32:25;;;;;;;6.15;2.08;;;;;;;;;;5094950;28;20131;-79
2022/04/04 14:34:51;;;;;;;4.70;2.30;;;;;;;;;;5098161;28;20105;-79
2022/04/04 14:37:18;;;;;;;13.35;6.57;;;;;;;;;;5097344;28;20077;-79
2022/04/04 14:39:45;;;;;;;11.40;5.53;;;;;;;;;;5097810;28;20048;-79
2022/04/04 14:42:13;;;;;;;11.18;5.03;;;;;;;;;;5113703;27;20584;-79
2022/04/04 14:44:48;;;;;;;10.52;5.20;;;;;;;;;;5096317;28;20056;-79
2022/04/04 14:47:18;;;;;;;14.68;6.65;;;;;;;;;;5115435;28;20056;-79
2022/04/04 14:49:54;;;;;;;14.60;6.38;;;;;;;;;;5115652;28;20518;-79